Time;durP1;ratioP1;P1;durP2;ratioP2;P2;SDS_P1;SDS_P2;PMS_P1;PMS_P2;Temp;Humidity;BMP_temperature;BMP_pressure;BME280_temperature;BME280_humidity;BME280_pressure;Samples;Min_cycle;Max_cycle;Signal;HPM_P1;HPM_P2
2021/05/26 00:01:19;;;;;;;3.55;1.67;;;;;;;8.52;68.22;100484.00;1658268;85;21474;-70
2021/05/26 00:03:45;;;;;;;1.22;0.93;;;;;;;8.48;68.28;100488.80;1676788;85;20968;-70
2021/05/26 00:06:11;;;;;;;1.42;1.10;;;;;;;8.44;68.33;100483.44;1687786;84;21122;-71
2021/05/26 00:08:37;;;;;;;3.90;1.40;;;;;;;8.41;68.42;100488.23;1701039;84;20953;-70
2021/05/26 00:11:07;;;;;;;1.55;0.80;;;;;;;8.39;68.53;100488.41;1701012;84;21510;-70
2021/05/26 00:13:33;;;;;;;3.72;1.30;;;;;;;8.37;68.61;100482.39;1695689;84;26596;-70
2021/05/26 00:15:59;;;;;;;1.70;1.02;;;;;;;8.34;68.68;100481.37;1687951;83;21041;-70
2021/05/26 00:18:26;;;;;;;2.95;0.85;;;;;;;8.31;68.76;100483.02;1687792;85;21049;-70
2021/05/26 00:20:53;;;;;;;0.93;0.80;;;;;;;8.27;68.87;100478.14;1687856;85;21097;-70
2021/05/26 00:23:20;;;;;;;1.87;1.20;;;;;;;8.24;68.93;100475.28;1687510;83;21564;-70
2021/05/26 00:25:46;;;;;;;2.70;1.90;;;;;;;8.19;69.00;100474.08;1687919;85;21605;-70
2021/05/26 00:28:12;;;;;;;2.58;0.93;;;;;;;8.16;69.05;100471.25;1687385;85;21053;-71
2021/05/26 00:30:53;;;;;;;1.20;1.00;;;;;;;8.14;69.11;100476.34;1687720;85;21639;-70
2021/05/26 00:33:16;;;;;;;4.00;1.77;;;;;;;8.13;69.18;100473.38;1686440;83;21076;-71
2021/05/26 00:35:42;;;;;;;2.35;1.70;;;;;;;8.09;69.23;100476.83;1687643;85;21033;-71
2021/05/26 00:38:09;;;;;;;2.58;1.62;;;;;;;8.09;69.29;100478.64;1687781;85;21109;-71
2021/05/26 00:40:35;;;;;;;1.22;0.85;;;;;;;8.05;69.35;100474.13;1687868;85;21078;-70
2021/05/26 00:43:01;;;;;;;1.25;0.98;;;;;;;7.99;69.41;100469.40;1687818;85;20976;-70
2021/05/26 00:45:27;;;;;;;1.60;1.00;;;;;;;7.99;69.48;100468.07;1695328;83;21065;-71
2021/05/26 00:47:53;;;;;;;2.45;1.30;;;;;;;7.96;69.54;100467.05;1691754;84;21087;-70
2021/05/26 00:50:23;;;;;;;4.40;1.17;;;;;;;7.95;69.59;100472.04;1720634;83;20921;-70
2021/05/26 00:52:49;;;;;;;2.83;1.40;;;;;;;7.92;69.64;100461.70;1720629;83;25306;-70
2021/05/26 00:55:17;;;;;;;2.35;1.20;;;;;;;7.90;69.72;100471.64;1720730;83;21450;-70
2021/05/26 00:57:43;;;;;;;1.05;0.90;;;;;;;7.85;69.75;100457.98;1720497;83;21097;-70
2021/05/26 01:00:12;;;;;;;4.28;1.30;;;;;;;7.82;69.81;100460.94;1720665;83;21131;-70
2021/05/26 01:02:38;;;;;;;5.33;2.20;;;;;;;7.81;69.87;100461.95;1720455;83;21604;-70
2021/05/26 01:05:06;;;;;;;2.15;1.40;;;;;;;7.78;69.92;100451.59;1720341;83;21077;-70
2021/05/26 01:07:32;;;;;;;3.75;1.30;;;;;;;7.77;69.96;100456.59;1714655;83;21129;-70
2021/05/26 01:09:58;;;;;;;1.92;0.90;;;;;;;7.73;70.00;100452.08;1677171;85;21057;-70
2021/05/26 01:12:25;;;;;;;2.85;1.12;;;;;;;7.72;70.05;100454.86;1677406;85;21049;-70
2021/05/26 01:14:50;;;;;;;3.47;1.60;;;;;;;7.70;70.11;100452.87;1677347;85;21086;-70
2021/05/26 01:17:17;;;;;;;3.20;1.12;;;;;;;7.53;70.13;100437.23;1677555;85;21052;-70
2021/05/26 01:19:43;;;;;;;2.87;1.62;;;;;;;7.53;70.13;100437.23;1676844;85;21119;-70
2021/05/26 01:22:09;;;;;;;2.08;1.37;;;;;;;7.61;70.25;100453.75;1677279;85;21069;-70
2021/05/26 01:24:35;;;;;;;2.67;1.30;;;;;;;7.57;70.29;100461.66;1677362;85;20885;-70
2021/05/26 01:27:01;;;;;;;2.67;0.85;;;;;;;7.57;70.35;100460.33;1677161;85;21679;-70
2021/05/26 01:29:27;;;;;;;1.72;1.20;;;;;;;7.52;70.38;100465.62;1677452;85;21079;-70
2021/05/26 01:31:54;;;;;;;1.50;0.95;;;;;;;7.52;70.43;100462.97;1677293;85;21111;-70
2021/05/26 01:34:21;;;;;;;3.25;1.30;;;;;;;7.52;70.46;100468.27;1677338;85;21188;-70
2021/05/26 01:36:47;;;;;;;5.37;1.45;;;;;;;7.49;70.52;100463.23;1677561;85;21582;-70
2021/05/26 01:39:15;;;;;;;2.08;1.10;;;;;;;7.47;70.54;100466.55;1677467;85;21120;-70
2021/05/26 01:41:41;;;;;;;3.70;2.20;;;;;;;7.45;70.60;100461.89;1677480;85;21088;-70
2021/05/26 01:44:08;;;;;;;4.25;1.35;;;;;;;7.42;70.67;100467.98;1677201;85;21441;-70
2021/05/26 01:46:36;;;;;;;3.85;1.22;;;;;;;7.40;70.67;100469.94;1702266;84;21104;-70
2021/05/26 01:49:04;;;;;;;1.72;1.12;;;;;;;7.38;70.71;100471.91;1702940;84;21130;-70
2021/05/26 01:51:31;;;;;;;1.80;1.20;;;;;;;7.34;70.79;100468.72;1677272;84;21128;-70
2021/05/26 01:53:57;;;;;;;1.82;1.10;;;;;;;7.32;70.84;100470.66;1702921;84;21068;-70
2021/05/26 01:56:26;;;;;;;5.22;2.25;;;;;;;7.29;70.90;100465.66;1703311;84;21678;-70
2021/05/26 01:58:53;;;;;;;5.20;2.27;;;;;;;7.31;70.98;100469.02;1702990;84;21079;-71
2021/05/26 02:01:21;;;;;;;4.70;2.17;;;;;;;7.30;71.03;100462.03;1703132;84;21063;-70
2021/05/26 02:03:47;;;;;;;8.93;2.45;;;;;;;7.30;71.12;100466.50;1703108;82;21064;-70
2021/05/26 02:06:14;;;;;;;4.05;1.90;;;;;;;7.29;71.19;100468.31;1702200;83;21628;-70
2021/05/26 02:08:40;;;;;;;3.08;2.00;;;;;;;7.29;71.27;100459.03;1653980;86;21268;-70
2021/05/26 02:13:51;;;;;;;4.72;1.57;;;;;;;7.27;71.38;100464.98;1653710;86;21127;-70
2021/05/26 02:16:17;;;;;;;3.47;1.37;;;;;;;7.25;71.47;100464.28;1698702;83;21592;-70
2021/05/26 02:18:43;;;;;;;2.60;1.77;;;;;;;7.24;71.52;100467.94;1653371;86;21709;-70
2021/05/26 02:21:09;;;;;;;8.53;4.05;;;;;;;7.23;71.57;100474.21;1698905;84;21518;-70
2021/05/26 02:23:35;;;;;;;7.20;3.25;;;;;;;7.19;71.64;100466.20;1653530;86;21595;-70
2021/05/26 02:26:01;;;;;;;6.37;2.95;;;;;;;7.19;71.64;100466.20;1699039;83;20973;-70
2021/05/26 02:28:27;;;;;;;3.27;1.50;;;;;;;7.19;71.73;100477.30;1653294;86;21048;-70
2021/05/26 02:30:53;;;;;;;4.10;1.75;;;;;;;7.18;71.80;100475.64;1698991;84;21109;-70
2021/05/26 02:33:20;;;;;;;3.60;1.50;;;;;;;7.18;71.85;100475.13;1653694;86;21115;-70
2021/05/26 02:35:47;;;;;;;2.95;1.40;;;;;;;7.16;71.88;100473.61;1698996;84;21604;-70
2021/05/26 02:38:13;;;;;;;13.15;1.32;;;;;;;7.15;71.89;100476.75;1653769;86;21055;-70
2021/05/26 02:40:39;;;;;;;3.17;1.77;;;;;;;7.14;71.96;100479.56;1698806;84;21942;-70
2021/05/26 02:43:05;;;;;;;4.40;1.92;;;;;;;7.12;72.00;100475.72;1653793;85;21023;-70
2021/05/26 02:45:31;;;;;;;3.08;1.60;;;;;;;7.10;72.08;100472.88;1694434;84;21701;-70
2021/05/26 02:47:58;;;;;;;4.55;1.72;;;;;;;7.10;72.13;100473.72;1663600;86;21130;-70
2021/05/26 02:50:24;;;;;;;5.75;1.42;;;;;;;7.10;72.19;100471.06;1666989;86;21105;-70
2021/05/26 02:52:51;;;;;;;3.17;1.47;;;;;;;7.11;72.21;100475.88;1663553;86;21035;-70
2021/05/26 02:55:20;;;;;;;5.15;1.30;;;;;;;7.12;72.28;100474.39;1665350;86;21097;-70
2021/05/26 02:57:47;;;;;;;3.95;1.50;;;;;;;7.14;72.31;100472.94;1659049;86;21121;-70
2021/05/26 03:00:15;;;;;;;3.98;2.58;;;;;;;7.17;72.36;100477.45;1660654;86;21097;-70
2021/05/26 03:02:41;;;;;;;4.72;1.85;;;;;;;7.20;72.42;100473.18;1680558;85;21056;-70
2021/05/26 03:05:08;;;;;;;2.10;1.10;;;;;;;7.24;72.45;100479.88;1660716;86;21660;-70
2021/05/26 03:07:34;;;;;;;4.05;1.40;;;;;;;7.28;72.52;100474.59;1696063;84;21096;-70
2021/05/26 03:10:00;;;;;;;9.03;1.70;;;;;;;7.33;72.54;100477.65;1706468;84;21834;-70
2021/05/26 03:12:26;;;;;;;4.80;2.50;;;;;;;7.25;72.41;100451.02;1706349;84;21077;-70
2021/05/26 03:14:52;;;;;;;3.17;1.72;;;;;;;7.42;72.61;100479.41;1706324;84;20949;-70
2021/05/26 03:17:19;;;;;;;6.03;1.55;;;;;;;7.45;72.62;100476.48;1706587;84;21056;-70
2021/05/26 03:19:45;;;;;;;4.25;1.85;;;;;;;7.48;72.65;100476.18;1706353;84;20940;-70
2021/05/26 03:22:11;;;;;;;2.17;1.22;;;;;;;7.50;72.66;100476.86;1706669;84;20989;-70
2021/05/26 03:24:37;;;;;;;5.95;1.35;;;;;;;7.57;72.70;100473.59;1706381;84;21718;-70
2021/05/26 03:27:03;;;;;;;7.85;1.92;;;;;;;7.62;72.70;100474.00;1706615;84;21025;-70
2021/05/26 03:29:29;;;;;;;3.37;1.95;;;;;;;7.70;72.72;100480.25;1706478;84;21040;-70
2021/05/26 03:31:55;;;;;;;7.67;2.42;;;;;;;8.02;72.91;100477.09;1706388;84;21035;-70
2021/05/26 03:34:21;;;;;;;2.98;1.42;;;;;;;8.31;72.78;100480.36;1706562;84;21064;-70
2021/05/26 03:36:47;;;;;;;3.45;1.30;;;;;;;8.37;72.58;100486.38;1706398;84;21059;-70
2021/05/26 03:39:13;;;;;;;4.85;2.35;;;;;;;8.79;72.74;100479.90;1706523;84;21028;-70
2021/05/26 03:41:39;;;;;;;5.20;1.82;;;;;;;9.12;72.42;100487.55;1706568;84;21064;-70
2021/05/26 03:44:07;;;;;;;3.22;1.32;;;;;;;8.94;72.13;100482.79;1706042;84;21009;-70
2021/05/26 03:46:34;;;;;;;3.12;1.32;;;;;;;8.76;72.10;100482.04;1695181;83;21052;-70
2021/05/26 03:49:00;;;;;;;7.12;1.92;;;;;;;8.69;72.07;100489.77;1694127;83;21116;-70
2021/05/26 03:51:26;;;;;;;3.83;1.72;;;;;;;8.65;72.06;100487.61;1684079;85;20926;-70
2021/05/26 03:53:53;;;;;;;2.83;1.40;;;;;;;8.71;72.08;100482.98;1681311;84;20952;-70
2021/05/26 03:56:20;;;;;;;6.20;1.60;;;;;;;8.77;71.97;100485.02;1695571;84;21036;-70
2021/05/26 03:58:46;;;;;;;7.83;1.82;;;;;;;8.79;71.89;100485.70;1694280;84;21549;-70
2021/05/26 04:01:12;;;;;;;3.65;1.82;;;;;;;8.80;71.81;100488.69;1684780;84;21101;-71
2021/05/26 04:03:38;;;;;;;2.17;1.32;;;;;;;8.77;71.78;100485.02;1681383;85;21540;-71
2021/05/26 04:06:04;;;;;;;6.03;1.50;;;;;;;8.79;71.74;100482.56;1695367;84;20870;-71
2021/05/26 04:08:30;;;;;;;3.30;2.17;;;;;;;8.82;71.71;100484.06;1697429;83;21061;-70
2021/05/26 04:10:56;;;;;;;6.58;1.72;;;;;;;8.87;71.67;100479.09;1697889;84;21924;-71
2021/05/26 04:13:22;;;;;;;5.62;1.90;;;;;;;8.95;71.62;100479.15;1697902;84;20913;-70
2021/05/26 04:15:48;;;;;;;4.50;1.77;;;;;;;9.00;71.52;100487.02;1697986;84;20886;-70
2021/05/26 04:18:14;;;;;;;5.47;1.55;;;;;;;9.04;71.45;100482.21;1697957;84;21593;-70
2021/05/26 04:20:40;;;;;;;5.08;1.65;;;;;;;9.07;71.40;100481.89;1697847;84;20893;-70
2021/05/26 04:23:06;;;;;;;5.85;1.47;;;;;;;9.08;71.36;100475.55;1697947;83;21708;-71
2021/05/26 04:25:33;;;;;;;3.70;1.50;;;;;;;8.98;71.32;100454.40;1697876;84;21098;-70
2021/05/26 04:27:59;;;;;;;3.42;1.20;;;;;;;8.98;71.32;100454.40;1697897;83;21725;-70
2021/05/26 04:30:25;;;;;;;4.47;1.50;;;;;;;9.13;71.21;100477.75;1687181;83;21060;-70
2021/05/26 04:32:51;;;;;;;6.15;1.62;;;;;;;9.15;71.16;100484.57;1728183;83;21636;-70
2021/05/26 04:35:17;;;;;;;3.83;0.93;;;;;;;9.18;71.09;100479.45;1728526;83;21227;-70
2021/05/26 04:37:43;;;;;;;3.08;1.25;;;;;;;9.20;71.04;100484.10;1728481;83;20922;-71
2021/05/26 04:40:11;;;;;;;3.58;1.05;;;;;;;9.23;71.01;100479.30;1728581;82;21617;-70
2021/05/26 04:42:37;;;;;;;5.58;1.20;;;;;;;9.32;70.95;100477.52;1728904;82;21542;-70
2021/05/26 04:45:04;;;;;;;10.82;1.20;;;;;;;9.37;70.88;100488.02;1730359;82;20929;-70
2021/05/26 04:47:30;;;;;;;7.10;1.90;;;;;;;9.47;70.79;100480.73;1730336;82;21100;-70
2021/05/26 04:49:56;;;;;;;3.52;1.40;;;;;;;9.56;70.73;100483.43;1699329;84;20956;-70
2021/05/26 04:52:22;;;;;;;3.75;1.80;;;;;;;9.63;70.65;100478.63;1730374;82;21108;-71
2021/05/26 04:54:48;;;;;;;2.20;1.40;;;;;;;9.69;70.57;100479.80;1700897;84;20987;-71
2021/05/26 04:57:14;;;;;;;7.47;1.50;;;;;;;9.74;70.48;100478.83;1730529;82;20921;-71
2021/05/26 04:59:40;;;;;;;5.40;1.60;;;;;;;9.60;70.37;100448.84;1700946;84;21232;-71
2021/05/26 05:02:06;;;;;;;6.85;2.35;;;;;;;9.85;70.29;100478.53;1698357;82;20877;-70
2021/05/26 05:04:32;;;;;;;3.92;1.50;;;;;;;9.92;70.16;100480.87;1698994;84;21080;-71
2021/05/26 05:06:58;;;;;;;2.25;1.50;;;;;;;10.05;70.09;100477.23;1728134;82;20932;-71
2021/05/26 05:09:25;;;;;;;5.22;1.70;;;;;;;10.15;69.97;100483.27;1725994;83;21340;-71
2021/05/26 05:11:51;;;;;;;7.50;2.12;;;;;;;10.18;69.87;100474.93;1726021;83;21277;-70
2021/05/26 05:14:17;;;;;;;7.45;1.52;;;;;;;10.23;69.76;100476.61;1726085;83;20925;-71
2021/05/26 05:16:43;;;;;;;10.43;2.80;;;;;;;10.34;69.63;100477.63;1725917;83;20938;-70
2021/05/26 05:19:09;;;;;;;6.67;1.45;;;;;;;10.52;69.53;100475.59;1726047;83;20984;-71
2021/05/26 05:21:35;;;;;;;4.55;2.33;;;;;;;10.65;69.42;100482.27;1723725;83;21625;-70
2021/05/26 05:24:01;;;;;;;6.80;2.27;;;;;;;10.73;69.27;100474.27;1720954;83;21183;-71
2021/05/26 05:26:27;;;;;;;5.00;2.20;;;;;;;10.77;69.11;100470.23;1696656;83;21655;-71
2021/05/26 05:28:53;;;;;;;6.40;1.62;;;;;;;10.79;68.97;100473.08;1711692;83;21035;-71
2021/05/26 05:31:19;;;;;;;5.90;1.92;;;;;;;10.80;68.85;100468.58;1711659;83;20956;-71
2021/05/26 05:33:45;;;;;;;6.67;1.82;;;;;;;10.82;68.67;100470.56;1711108;83;21075;-71
2021/05/26 05:36:12;;;;;;;2.62;1.15;;;;;;;10.92;68.53;100467.20;1719605;83;21507;-71
2021/05/26 05:38:38;;;;;;;3.35;1.87;;;;;;;11.17;68.36;100464.80;1718948;83;21043;-71
2021/05/26 05:41:04;;;;;;;3.58;1.98;;;;;;;11.69;68.11;100470.91;1719630;83;20999;-71
2021/05/26 05:43:30;;;;;;;5.70;1.50;;;;;;;12.39;67.78;100457.75;1719424;83;21066;-71
2021/05/26 05:45:56;;;;;;;6.05;1.47;;;;;;;13.01;67.33;100457.50;1719574;83;21067;-71
2021/05/26 05:48:23;;;;;;;2.15;1.25;;;;;;;13.55;66.96;100465.23;1719506;83;21138;-72
2021/05/26 05:50:49;;;;;;;5.90;1.85;;;;;;;13.95;66.55;100456.64;1718786;83;21114;-71
2021/05/26 05:53:15;;;;;;;7.08;2.25;;;;;;;14.11;65.93;100463.09;1719551;83;20951;-72
2021/05/26 05:55:41;;;;;;;3.58;1.70;;;;;;;14.29;65.28;100446.04;1691220;83;20899;-71
2021/05/26 05:58:10;;;;;;;6.58;1.40;;;;;;;14.48;64.71;100450.80;1711861;83;20907;-72
2021/05/26 06:00:38;;;;;;;9.45;2.08;;;;;;;14.48;64.01;100452.14;1699481;83;21104;-72
2021/05/26 06:03:04;;;;;;;9.07;3.17;;;;;;;14.56;63.46;100448.99;1701128;83;22238;-72
2021/05/26 06:05:32;;;;;;;8.95;1.92;;;;;;;14.73;62.84;100439.63;1699522;83;21043;-72
2021/05/26 06:07:58;;;;;;;9.80;2.55;;;;;;;14.85;62.47;100442.90;1702857;82;21160;-72
2021/05/26 06:10:24;;;;;;;3.67;2.02;;;;;;;15.02;61.91;100446.64;1699065;83;21083;-72
2021/05/26 06:12:53;;;;;;;3.92;1.42;;;;;;;15.30;61.51;100446.07;1692990;83;21895;-71
2021/05/26 06:15:18;;;;;;;2.00;0.82;;;;;;;15.28;60.64;100434.16;1700251;83;21638;-72
2021/05/26 06:17:43;;;;;;;5.17;1.30;;;;;;;15.37;60.24;100435.67;1694455;83;20947;-72
2021/05/26 06:20:11;;;;;;;1.65;0.90;;;;;;;15.41;59.86;100434.22;1690578;83;21153;-71
2021/05/26 06:22:37;;;;;;;6.15;1.15;;;;;;;15.37;59.69;100435.67;1690061;83;21090;-72
2021/05/26 06:25:03;;;;;;;2.60;1.30;;;;;;;15.59;59.24;100436.39;1690732;83;21219;-72
2021/05/26 06:27:30;;;;;;;6.00;2.00;;;;;;;15.47;58.72;100438.81;1690620;83;21070;-71
2021/05/26 06:29:56;;;;;;;8.35;2.33;;;;;;;15.29;58.23;100439.86;1704618;83;20941;-72
2021/05/26 06:32:22;;;;;;;3.95;1.85;;;;;;;15.35;58.11;100437.71;1701197;83;20910;-71
2021/05/26 06:34:50;;;;;;;15.48;1.40;;;;;;;15.73;57.80;100445.32;1696687;83;20955;-72
2021/05/26 06:37:17;;;;;;;6.97;1.45;;;;;;;15.74;57.33;100453.20;1691389;83;21610;-71
2021/05/26 06:39:43;;;;;;;9.08;2.00;;;;;;;15.58;57.02;100448.70;1701617;83;21066;-71
2021/05/26 06:42:09;;;;;;;3.67;0.93;;;;;;;15.06;56.73;100448.70;1693511;83;21923;-71
2021/05/26 06:44:35;;;;;;;3.60;1.02;;;;;;;14.52;56.55;100456.61;1698125;83;21065;-71
2021/05/26 06:47:01;;;;;;;7.47;2.62;;;;;;;14.03;56.39;100453.02;1700590;83;21028;-71
2021/05/26 06:49:27;;;;;;;4.50;1.52;;;;;;;14.23;56.42;100443.30;1701851;83;20942;-71
2021/05/26 06:51:54;;;;;;;4.00;1.30;;;;;;;14.82;56.40;100447.33;1691526;83;21019;-71
2021/05/26 06:54:21;;;;;;;5.47;1.77;;;;;;;15.37;56.17;100446.94;1701447;83;21629;-71
2021/05/26 06:56:47;;;;;;;3.45;1.07;;;;;;;15.63;55.76;100444.37;1713316;83;21092;-71
2021/05/26 06:59:14;;;;;;;6.35;0.78;;;;;;;15.70;55.49;100446.56;1695034;83;21086;-71
2021/05/26 07:01:40;;;;;;;3.37;1.32;;;;;;;15.94;55.03;100450.55;1691283;83;21475;-71
2021/05/26 07:04:06;;;;;;;5.97;1.20;;;;;;;16.02;54.61;100444.99;1703853;83;21697;-71
2021/05/26 07:06:32;;;;;;;3.20;1.05;;;;;;;16.15;54.23;100446.35;1701650;83;20902;-71
2021/05/26 07:08:58;;;;;;;6.60;1.25;;;;;;;16.35;53.76;100439.16;1708160;83;21053;-71
2021/05/26 07:11:24;;;;;;;4.35;1.45;;;;;;;16.42;53.49;100441.33;1702677;83;20932;-71
2021/05/26 07:13:50;;;;;;;4.37;1.10;;;;;;;16.51;53.20;100439.23;1694837;83;21163;-71
2021/05/26 07:16:16;;;;;;;2.50;0.95;;;;;;;16.59;52.63;100435.55;1693506;83;21601;-71
2021/05/26 07:18:46;;;;;;;5.17;1.52;;;;;;;16.56;52.20;100431.41;1696959;83;20902;-71
2021/05/26 07:21:10;;;;;;;5.22;1.30;;;;;;;16.47;51.95;100433.44;1708711;83;21033;-71
2021/05/26 07:23:36;;;;;;;2.55;0.72;;;;;;;16.44;52.10;100429.83;1710930;83;21090;-71
2021/05/26 07:26:02;;;;;;;3.17;1.20;;;;;;;16.68;52.05;100428.39;1694430;83;20950;-71
2021/05/26 07:28:28;;;;;;;4.25;1.07;;;;;;;16.64;51.91;100415.57;1690850;83;20983;-71
2021/05/26 07:30:54;;;;;;;4.53;1.12;;;;;;;16.59;51.72;100417.53;1690489;83;20951;-71
2021/05/26 07:33:20;;;;;;;5.30;0.98;;;;;;;16.69;51.54;100419.28;1695338;83;20991;-71
2021/05/26 07:35:46;;;;;;;2.37;0.80;;;;;;;16.81;51.17;100412.75;1716386;83;20909;-71
2021/05/26 07:38:13;;;;;;;3.12;0.78;;;;;;;16.67;50.90;100417.84;1719443;83;21955;-71
2021/05/26 07:40:39;;;;;;;2.92;0.70;;;;;;;16.50;51.03;100412.83;1719485;83;21304;-71
2021/05/26 07:43:05;;;;;;;4.28;2.62;;;;;;;16.84;51.05;100418.55;1719271;83;21053;-71
2021/05/26 07:45:31;;;;;;;5.37;1.45;;;;;;;17.08;50.92;100402.72;1708459;83;21009;-71
2021/05/26 07:47:57;;;;;;;3.80;1.02;;;;;;;16.92;50.52;100408.06;1690850;83;21669;-71
2021/05/26 07:50:23;;;;;;;3.40;1.35;;;;;;;16.68;50.42;100407.36;1696500;83;21053;-71
2021/05/26 07:52:49;;;;;;;5.35;1.85;;;;;;;16.55;50.36;100414.08;1693462;83;20970;-71
2021/05/26 07:55:15;;;;;;;3.75;0.90;;;;;;;16.82;50.38;100406.30;1719295;83;20993;-71
2021/05/26 07:57:41;;;;;;;5.67;1.85;;;;;;;16.87;50.12;100407.86;1719435;83;21081;-71
2021/05/26 08:00:08;;;;;;;2.60;1.25;;;;;;;17.20;50.11;100407.26;1718886;83;21112;-71
2021/05/26 08:02:34;;;;;;;7.22;1.20;;;;;;;17.25;49.84;100415.52;1699307;83;21373;-71
2021/05/26 08:05:00;;;;;;;4.17;1.35;;;;;;;16.95;49.64;100408.98;1702821;83;21010;-71
2021/05/26 08:07:28;;;;;;;7.95;1.85;;;;;;;16.45;49.54;100415.34;1703584;83;20902;-71
2021/05/26 08:09:56;;;;;;;13.28;3.62;;;;;;;16.24;49.82;100406.63;1701482;82;21057;-71
2021/05/26 08:12:22;;;;;;;6.25;1.87;;;;;;;16.19;49.82;100418.01;1701338;83;21028;-71
2021/05/26 08:14:48;;;;;;;9.23;1.92;;;;;;;15.90;49.82;100408.98;1692672;84;21644;-71
2021/05/26 08:17:14;;;;;;;6.10;1.90;;;;;;;15.62;49.96;100417.16;1693997;83;20926;-71
2021/05/26 08:19:40;;;;;;;6.65;1.47;;;;;;;15.41;49.93;100422.12;1690805;84;21081;-71
2021/05/26 08:22:06;;;;;;;4.83;1.00;;;;;;;15.25;50.03;100416.27;1691755;84;20985;-71
2021/05/26 08:24:32;;;;;;;5.53;2.10;;;;;;;15.13;50.25;100424.05;1694091;84;21081;-71
2021/05/26 08:27:00;;;;;;;5.67;1.40;;;;;;;15.42;50.49;100425.13;1691007;84;21952;-71
2021/05/26 08:29:26;;;;;;;4.25;1.82;;;;;;;15.57;50.46;100422.84;1685547;83;21103;-71
2021/05/26 08:31:57;;;;;;;3.92;1.98;;;;;;;15.44;50.47;100422.26;1700439;83;21635;-71
2021/05/26 08:34:21;;;;;;;5.50;1.30;;;;;;;15.27;50.50;100424.44;1696533;84;21627;-71
2021/05/26 08:36:47;;;;;;;4.85;1.60;;;;;;;15.21;50.74;100420.37;1690807;83;20984;-71
2021/05/26 08:39:14;;;;;;;4.97;1.65;;;;;;;15.24;50.91;100417.29;1696343;82;21793;-71
2021/05/26 08:41:40;;;;;;;1.95;1.07;;;;;;;15.54;51.03;100422.73;1692616;84;21137;-71
2021/05/26 08:44:07;;;;;;;3.10;0.98;;;;;;;15.74;51.04;100416.90;1671822;84;21381;-71
2021/05/26 08:46:35;;;;;;;3.75;1.00;;;;;;;15.72;51.02;100414.11;1689738;83;21076;-71
2021/05/26 08:49:03;;;;;;;4.55;1.05;;;;;;;15.71;51.18;100409.75;1693048;83;21037;-71
2021/05/26 08:51:30;;;;;;;5.00;1.40;;;;;;;15.74;51.24;100417.41;1698823;84;21688;-71
2021/05/26 08:53:56;;;;;;;5.67;1.17;;;;;;;15.72;51.14;100412.25;1696778;83;21544;-71
2021/05/26 08:56:22;;;;;;;3.72;1.25;;;;;;;15.65;50.98;100411.41;1700240;83;21615;-71
2021/05/26 08:58:48;;;;;;;4.35;1.85;;;;;;;15.73;51.04;100407.67;1697420;83;20925;-71
2021/05/26 09:01:14;;;;;;;10.23;1.70;;;;;;;16.09;50.86;100405.48;1695662;82;21074;-71
2021/05/26 09:03:41;;;;;;;17.42;1.92;;;;;;;16.49;50.57;100409.85;1699702;83;21194;-70
2021/05/26 09:06:10;;;;;;;8.45;0.95;;;;;;;16.75;50.39;100401.44;1684717;84;21675;-71
2021/05/26 09:08:52;;;;;;;;;;;;;;;16.89;50.16;100399.03;1698604;84;21071;-71
2021/05/26 09:11:38;;;;;;;3.05;0.98;;;;;;;16.82;49.88;100388.27;1697007;78;20249;-70
2021/05/26 09:14:11;;;;;;;4.05;1.10;;;;;;;16.61;49.45;100393.07;1703570;82;21136;-71
2021/05/26 09:16:37;;;;;;;8.90;1.35;;;;;;;16.49;49.38;100403.13;1687258;84;21158;-70
2021/05/26 09:19:05;;;;;;;16.40;1.98;;;;;;;16.48;49.25;100389.86;1700718;83;20960;-71
2021/05/26 09:21:46;;;;;;;9.83;1.25;;;;;;;16.59;49.07;100392.47;1697789;84;22033;-71
2021/05/26 09:24:26;;;;;;;6.08;0.88;;;;;;;16.90;49.00;100396.66;1708705;83;21084;-71
2021/05/26 09:26:54;;;;;;;1.50;1.07;;;;;;;17.28;48.89;100382.73;1701235;83;21028;-71
2021/05/26 09:29:33;;;;;;;6.00;1.52;;;;;;;17.84;48.54;100379.36;1721760;81;21084;-70
2021/05/26 09:32:22;;;;;;;3.65;1.05;;;;;;;18.07;48.13;100379.63;1691870;84;21703;-71
2021/05/26 09:34:50;;;;;;;3.90;0.90;;;;;;;17.86;47.78;100375.94;1673845;84;22297;-72
2021/05/26 09:37:31;;;;;;;9.45;1.27;;;;;;;17.14;47.08;100378.44;1680197;84;21156;-71
2021/05/26 09:40:06;;;;;;;5.47;1.20;;;;;;;16.97;46.94;100362.44;1716558;82;21595;-70
2021/05/26 09:42:37;;;;;;;2.95;1.35;;;;;;;16.77;46.77;100377.84;1712687;83;21104;-70
2021/05/26 09:45:17;;;;;;;5.25;1.77;;;;;;;16.68;46.72;100360.23;1712082;83;21064;-70
2021/05/26 09:47:54;;;;;;;5.62;2.62;;;;;;;16.72;46.76;100365.51;1690343;84;21080;-70
2021/05/26 09:50:26;;;;;;;5.17;0.90;;;;;;;16.74;46.57;100359.41;1710961;82;21892;-71
2021/05/26 09:53:12;;;;;;;4.70;2.02;;;;;;;16.93;46.48;100362.55;1719120;83;21012;-71
2021/05/26 09:55:40;;;;;;;4.83;1.85;;;;;;;17.51;46.54;100354.44;1710527;82;21098;-71
2021/05/26 09:58:10;;;;;;;3.75;1.20;;;;;;;17.98;46.12;100354.77;1708869;83;21082;-71
2021/05/26 10:00:38;;;;;;;3.25;0.80;;;;;;;18.22;45.85;100343.70;1702699;83;21027;-71
2021/05/26 10:03:05;;;;;;;2.37;1.07;;;;;;;18.36;45.40;100349.80;1705975;82;21160;-71
2021/05/26 10:05:31;;;;;;;3.67;1.77;;;;;;;18.35;44.64;100340.88;1702124;82;21603;-71
2021/05/26 10:07:59;;;;;;;2.55;1.50;;;;;;;18.27;44.26;100342.49;1705140;83;21149;-71
2021/05/26 10:10:30;;;;;;;4.97;1.67;;;;;;;18.44;43.80;100328.72;1711420;83;21477;-70
2021/05/26 10:13:03;;;;;;;3.22;0.90;;;;;;;18.37;43.22;100336.06;1708166;83;21057;-70
2021/05/26 10:15:31;;;;;;;4.37;1.45;;;;;;;18.24;43.34;100333.48;1703654;83;21094;-71
2021/05/26 10:18:00;;;;;;;2.92;1.00;;;;;;;18.45;43.44;100334.44;1701438;83;21122;-71
2021/05/26 10:20:30;;;;;;;6.58;1.92;;;;;;;18.67;43.08;100329.98;1699706;83;21134;-70
2021/05/26 10:22:58;;;;;;;3.40;0.90;;;;;;;18.75;42.67;100327.00;1701215;83;21064;-70
2021/05/26 10:25:24;;;;;;;5.50;2.00;;;;;;;18.85;42.32;100327.30;1700900;83;21119;-70
2021/05/26 10:27:52;;;;;;;2.40;1.02;;;;;;;18.65;42.26;100319.39;1710170;83;20902;-71
2021/05/26 10:30:20;;;;;;;7.03;1.80;;;;;;;18.54;42.31;100329.61;1704264;83;21022;-70
2021/05/26 10:32:51;;;;;;;4.90;1.65;;;;;;;18.30;42.38;100317.75;1698339;82;21121;-70
2021/05/26 10:35:17;;;;;;;5.72;1.47;;;;;;;17.98;42.37;100319.41;1709617;83;21485;-70
2021/05/26 10:37:44;;;;;;;2.77;1.30;;;;;;;17.86;42.43;100312.53;1709576;83;21116;-70
2021/05/26 10:40:32;;;;;;;5.12;1.50;;;;;;;17.74;42.55;100304.83;1704384;83;21046;-71
2021/05/26 10:43:22;;;;;;;2.83;1.40;;;;;;;17.74;42.62;100307.52;1701928;83;21123;-70
2021/05/26 10:45:49;;;;;;;3.22;1.07;;;;;;;18.13;42.98;100297.77;1710100;83;21838;-71
2021/05/26 10:48:42;;;;;;;5.97;1.37;;;;;;;18.51;42.90;100290.88;1678961;83;21026;-70
2021/05/26 10:51:09;;;;;;;5.58;1.52;;;;;;;18.30;42.58;100293.45;1700018;83;21591;-71
2021/05/26 10:53:39;;;;;;;8.65;2.17;;;;;;;18.10;42.68;100292.81;1672546;84;21094;-71
2021/05/26 10:56:05;;;;;;;2.77;1.10;;;;;;;18.33;42.64;100292.20;1675830;84;21094;-70
2021/05/26 10:58:44;;;;;;;2.25;1.47;;;;;;;18.15;42.51;100277.31;1681734;84;21086;-70
2021/05/26 11:01:11;;;;;;;4.75;1.27;;;;;;;17.94;42.50;100281.23;1687078;84;21674;-70
2021/05/26 11:03:39;;;;;;;11.28;1.40;;;;;;;17.85;42.48;100286.07;1696022;83;21418;-70
2021/05/26 11:06:16;;;;;;;13.18;2.10;;;;;;;17.78;42.38;100281.77;1714127;82;21548;-70
2021/05/26 11:08:55;;;;;;;5.62;1.22;;;;;;;17.72;42.40;100275.91;1703148;83;21066;-70
2021/05/26 11:11:39;;;;;;;8.08;2.20;;;;;;;17.71;42.24;100268.86;1703700;82;21607;-70
2021/05/26 11:14:14;;;;;;;4.42;1.17;;;;;;;17.78;42.21;100269.62;1709334;82;21082;-69
2021/05/26 11:16:50;;;;;;;3.33;1.00;;;;;;;18.16;42.09;100262.23;1710612;82;21127;-70
2021/05/26 11:19:24;;;;;;;4.70;1.42;;;;;;;18.11;41.86;100260.73;1697155;82;21164;-70
2021/05/26 11:22:01;;;;;;;2.65;1.22;;;;;;;18.06;41.99;100252.47;1714521;83;21028;-70
2021/05/26 11:24:29;;;;;;;6.40;2.30;;;;;;;17.97;41.95;100249.77;1720855;82;21304;-70
2021/05/26 11:26:55;;;;;;;3.80;1.35;;;;;;;18.06;41.90;100244.89;1721425;83;21022;-70
2021/05/26 11:29:34;;;;;;;5.80;1.15;;;;;;;18.44;41.89;100240.95;1721325;82;22348;-70
2021/05/26 11:32:15;;;;;;;4.40;1.37;;;;;;;18.55;41.73;100232.66;1721282;83;21093;-70
2021/05/26 11:34:43;;;;;;;2.47;1.10;;;;;;;18.53;41.54;100225.84;1720692;83;21007;-70